sensor_id;sensor_type;location;lat;lon;timestamp;pressure;altitude;pressure_sealevel;temperature
19644;BMP180;9970;-36.854;174.870;2023-07-13T00:01:01;101420.00;;;13.90
19644;BMP180;9970;-36.854;174.870;2023-07-13T00:03:34;101407.00;;;13.90
19644;BMP180;9970;-36.854;174.870;2023-07-13T00:06:07;101404.00;;;13.90
19644;BMP180;9970;-36.854;174.870;2023-07-13T00:08:41;101407.00;;;13.90
19644;BMP180;9970;-36.854;174.870;2023-07-13T00:11:14;101406.00;;;13.90
19644;BMP180;9970;-36.854;174.870;2023-07-13T00:13:48;101399.00;;;13.90
19644;BMP180;9970;-36.854;174.870;2023-07-13T00:16:21;101401.00;;;13.90
19644;BMP180;9970;-36.854;174.870;2023-07-13T00:18:54;101406.00;;;13.90
19644;BMP180;9970;-36.854;174.870;2023-07-13T00:21:27;101395.00;;;13.90
19644;BMP180;9970;-36.854;174.870;2023-07-13T00:24:00;101393.00;;;14.00
19644;BMP180;9970;-36.854;174.870;2023-07-13T00:26:34;101389.00;;;14.00
19644;BMP180;9970;-36.854;174.870;2023-07-13T00:29:07;101387.00;;;14.00
19644;BMP180;9970;-36.854;174.870;2023-07-13T00:31:40;101380.00;;;14.00
19644;BMP180;9970;-36.854;174.870;2023-07-13T00:34:13;101383.00;;;14.00
19644;BMP180;9970;-36.854;174.870;2023-07-13T00:36:46;101393.00;;;14.00
19644;BMP180;9970;-36.854;174.870;2023-07-13T00:39:21;101388.00;;;14.00
19644;BMP180;9970;-36.854;174.870;2023-07-13T00:41:54;101387.00;;;14.00
19644;BMP180;9970;-36.854;174.870;2023-07-13T00:44:27;101395.00;;;14.00
19644;BMP180;9970;-36.854;174.870;2023-07-13T00:47:00;101374.00;;;13.90
19644;BMP180;9970;-36.854;174.870;2023-07-13T00:49:34;101383.00;;;13.90
19644;BMP180;9970;-36.854;174.870;2023-07-13T00:52:09;101373.00;;;13.90
19644;BMP180;9970;-36.854;174.870;2023-07-13T00:54:43;101374.00;;;13.90
19644;BMP180;9970;-36.854;174.870;2023-07-13T00:57:20;101383.00;;;13.80
19644;BMP180;9970;-36.854;174.870;2023-07-13T00:59:55;101369.00;;;13.80
19644;BMP180;9970;-36.854;174.870;2023-07-13T01:02:29;101366.00;;;13.80
19644;BMP180;9970;-36.854;174.870;2023-07-13T01:05:08;101364.00;;;13.80
19644;BMP180;9970;-36.854;174.870;2023-07-13T01:07:36;101361.00;;;13.80
19644;BMP180;9970;-36.854;174.870;2023-07-13T01:10:13;101364.00;;;13.80
19644;BMP180;9970;-36.854;174.870;2023-07-13T01:12:46;101346.00;;;13.70
19644;BMP180;9970;-36.854;174.870;2023-07-13T01:15:45;101349.00;;;13.70
19644;BMP180;9970;-36.854;174.870;2023-07-13T01:18:20;101347.00;;;13.70
19644;BMP180;9970;-36.854;174.870;2023-07-13T01:21:02;101327.00;;;13.70
19644;BMP180;9970;-36.854;174.870;2023-07-13T01:23:32;101332.00;;;13.70
19644;BMP180;9970;-36.854;174.870;2023-07-13T01:26:06;101332.00;;;13.70
19644;BMP180;9970;-36.854;174.870;2023-07-13T01:28:39;101337.00;;;13.70
19644;BMP180;9970;-36.854;174.870;2023-07-13T01:31:12;101326.00;;;13.60
19644;BMP180;9970;-36.854;174.870;2023-07-13T01:33:45;101319.00;;;13.60
19644;BMP180;9970;-36.854;174.870;2023-07-13T01:36:18;101328.00;;;13.60
19644;BMP180;9970;-36.854;174.870;2023-07-13T01:38:52;101322.00;;;13.60
19644;BMP180;9970;-36.854;174.870;2023-07-13T01:41:25;101314.00;;;13.60
19644;BMP180;9970;-36.854;174.870;2023-07-13T01:43:58;101321.00;;;13.70
19644;BMP180;9970;-36.854;174.870;2023-07-13T01:46:31;101304.00;;;13.70
19644;BMP180;9970;-36.854;174.870;2023-07-13T01:49:04;101310.00;;;13.70
19644;BMP180;9970;-36.854;174.870;2023-07-13T01:51:37;101299.00;;;13.80
19644;BMP180;9970;-36.854;174.870;2023-07-13T01:54:10;101310.00;;;13.80
19644;BMP180;9970;-36.854;174.870;2023-07-13T01:56:42;101302.00;;;13.90
19644;BMP180;9970;-36.854;174.870;2023-07-13T01:59:20;101308.00;;;13.90
19644;BMP180;9970;-36.854;174.870;2023-07-13T02:04:58;101296.00;;;13.90
19644;BMP180;9970;-36.854;174.870;2023-07-13T02:07:31;101303.00;;;13.90
19644;BMP180;9970;-36.854;174.870;2023-07-13T02:10:05;101299.00;;;13.90
19644;BMP180;9970;-36.854;174.870;2023-07-13T02:12:40;101312.00;;;13.90
19644;BMP180;9970;-36.854;174.870;2023-07-13T02:15:14;101298.00;;;13.90
19644;BMP180;9970;-36.854;174.870;2023-07-13T02:17:47;101306.00;;;13.90
19644;BMP180;9970;-36.854;174.870;2023-07-13T02:20:20;101306.00;;;13.90
19644;BMP180;9970;-36.854;174.870;2023-07-13T02:22:53;101295.00;;;13.90
19644;BMP180;9970;-36.854;174.870;2023-07-13T02:25:26;101289.00;;;13.90
19644;BMP180;9970;-36.854;174.870;2023-07-13T02:27:59;101285.00;;;13.90
19644;BMP180;9970;-36.854;174.870;2023-07-13T02:30:33;101284.00;;;14.00
19644;BMP180;9970;-36.854;174.870;2023-07-13T02:33:06;101298.00;;;14.00
19644;BMP180;9970;-36.854;174.870;2023-07-13T02:35:39;101301.00;;;14.00
19644;BMP180;9970;-36.854;174.870;2023-07-13T02:38:12;101293.00;;;14.00
19644;BMP180;9970;-36.854;174.870;2023-07-13T02:40:45;101300.00;;;14.00
19644;BMP180;9970;-36.854;174.870;2023-07-13T02:43:19;101298.00;;;14.00
19644;BMP180;9970;-36.854;174.870;2023-07-13T02:46:01;101298.00;;;14.00
19644;BMP180;9970;-36.854;174.870;2023-07-13T02:49:06;101306.00;;;14.00
19644;BMP180;9970;-36.854;174.870;2023-07-13T02:51:39;101300.00;;;13.90
19644;BMP180;9970;-36.854;174.870;2023-07-13T02:54:12;101290.00;;;13.90
19644;BMP180;9970;-36.854;174.870;2023-07-13T02:56:44;101298.00;;;13.90
19644;BMP180;9970;-36.854;174.870;2023-07-13T02:59:18;101293.00;;;13.90
19644;BMP180;9970;-36.854;174.870;2023-07-13T03:01:50;101298.00;;;13.90
19644;BMP180;9970;-36.854;174.870;2023-07-13T03:04:25;101305.00;;;13.90
19644;BMP180;9970;-36.854;174.870;2023-07-13T03:06:59;101302.00;;;13.90
19644;BMP180;9970;-36.854;174.870;2023-07-13T03:09:32;101300.00;;;13.90
19644;BMP180;9970;-36.854;174.870;2023-07-13T03:12:06;101297.00;;;13.90
19644;BMP180;9970;-36.854;174.870;2023-07-13T03:14:39;101298.00;;;13.90
19644;BMP180;9970;-36.854;174.870;2023-07-13T03:17:12;101305.00;;;13.90
19644;BMP180;9970;-36.854;174.870;2023-07-13T03:19:45;101297.00;;;13.90
19644;BMP180;9970;-36.854;174.870;2023-07-13T03:22:19;101298.00;;;13.90
19644;BMP180;9970;-36.854;174.870;2023-07-13T03:24:54;101284.00;;;13.90
19644;BMP180;9970;-36.854;174.870;2023-07-13T03:27:28;101279.00;;;13.90
19644;BMP180;9970;-36.854;174.870;2023-07-13T03:30:01;101270.00;;;13.90
19644;BMP180;9970;-36.854;174.870;2023-07-13T03:32:34;101272.00;;;13.90
19644;BMP180;9970;-36.854;174.870;2023-07-13T03:35:08;101268.00;;;13.90
19644;BMP180;9970;-36.854;174.870;2023-07-13T03:37:41;101276.00;;;13.90
19644;BMP180;9970;-36.854;174.870;2023-07-13T03:40:14;101261.00;;;13.90
19644;BMP180;9970;-36.854;174.870;2023-07-13T03:42:47;101274.00;;;13.90
19644;BMP180;9970;-36.854;174.870;2023-07-13T03:45:20;101273.00;;;13.90
19644;BMP180;9970;-36.854;174.870;2023-07-13T03:47:53;101272.00;;;13.90
19644;BMP180;9970;-36.854;174.870;2023-07-13T03:50:26;101269.00;;;13.90
19644;BMP180;9970;-36.854;174.870;2023-07-13T03:52:59;101267.00;;;13.80
19644;BMP180;9970;-36.854;174.870;2023-07-13T03:55:32;101264.00;;;13.80
19644;BMP180;9970;-36.854;174.870;2023-07-13T03:58:33;101253.00;;;13.80
19644;BMP180;9970;-36.854;174.870;2023-07-13T04:01:09;101260.00;;;13.80
19644;BMP180;9970;-36.854;174.870;2023-07-13T04:03:42;101264.00;;;13.80
19644;BMP180;9970;-36.854;174.870;2023-07-13T04:06:17;101268.00;;;13.80
19644;BMP180;9970;-36.854;174.870;2023-07-13T04:08:55;101263.00;;;13.80
19644;BMP180;9970;-36.854;174.870;2023-07-13T04:11:32;101263.00;;;13.80
19644;BMP180;9970;-36.854;174.870;2023-07-13T04:14:06;101259.00;;;13.80
19644;BMP180;9970;-36.854;174.870;2023-07-13T04:16:39;101268.00;;;13.80
19644;BMP180;9970;-36.854;174.870;2023-07-13T04:19:12;101262.00;;;13.80
19644;BMP180;9970;-36.854;174.870;2023-07-13T04:21:46;101273.00;;;13.80
19644;BMP180;9970;-36.854;174.870;2023-07-13T04:24:19;101269.00;;;13.80
19644;BMP180;9970;-36.854;174.870;2023-07-13T04:26:52;101272.00;;;13.80
19644;BMP180;9970;-36.854;174.870;2023-07-13T04:29:25;101271.00;;;13.80
19644;BMP180;9970;-36.854;174.870;2023-07-13T04:31:57;101272.00;;;13.80
19644;BMP180;9970;-36.854;174.870;2023-07-13T04:34:30;101277.00;;;13.70
19644;BMP180;9970;-36.854;174.870;2023-07-13T04:37:08;101278.00;;;13.70
19644;BMP180;9970;-36.854;174.870;2023-07-13T04:39:41;101280.00;;;13.70
19644;BMP180;9970;-36.854;174.870;2023-07-13T04:42:14;101281.00;;;13.70
19644;BMP180;9970;-36.854;174.870;2023-07-13T04:44:51;101280.00;;;13.70
19644;BMP180;9970;-36.854;174.870;2023-07-13T04:47:24;101275.00;;;13.70
19644;BMP180;9970;-36.854;174.870;2023-07-13T04:49:57;101280.00;;;13.70
19644;BMP180;9970;-36.854;174.870;2023-07-13T04:52:30;101279.00;;;13.70
19644;BMP180;9970;-36.854;174.870;2023-07-13T04:55:04;101290.00;;;13.70
19644;BMP180;9970;-36.854;174.870;2023-07-13T04:57:41;101278.00;;;13.70
19644;BMP180;9970;-36.854;174.870;2023-07-13T05:00:15;101279.00;;;13.60
19644;BMP180;9970;-36.854;174.870;2023-07-13T05:02:48;101277.00;;;13.60
19644;BMP180;9970;-36.854;174.870;2023-07-13T05:05:21;101269.00;;;13.60
19644;BMP180;9970;-36.854;174.870;2023-07-13T05:07:54;101273.00;;;13.60
19644;BMP180;9970;-36.854;174.870;2023-07-13T05:10:27;101279.00;;;13.60
19644;BMP180;9970;-36.854;174.870;2023-07-13T05:13:01;101272.00;;;13.60
19644;BMP180;9970;-36.854;174.870;2023-07-13T05:15:34;101282.00;;;13.60
19644;BMP180;9970;-36.854;174.870;2023-07-13T05:18:07;101272.00;;;13.60
19644;BMP180;9970;-36.854;174.870;2023-07-13T05:20:40;101271.00;;;13.50
19644;BMP180;9970;-36.854;174.870;2023-07-13T05:23:13;101277.00;;;13.50
19644;BMP180;9970;-36.854;174.870;2023-07-13T05:25:46;101274.00;;;13.50
19644;BMP180;9970;-36.854;174.870;2023-07-13T05:28:24;101272.00;;;13.50
19644;BMP180;9970;-36.854;174.870;2023-07-13T05:30:58;101272.00;;;13.50
19644;BMP180;9970;-36.854;174.870;2023-07-13T05:33:31;101288.00;;;13.50
19644;BMP180;9970;-36.854;174.870;2023-07-13T05:36:04;101281.00;;;13.50
19644;BMP180;9970;-36.854;174.870;2023-07-13T05:38:38;101286.00;;;13.50
19644;BMP180;9970;-36.854;174.870;2023-07-13T05:41:11;101278.00;;;13.50
19644;BMP180;9970;-36.854;174.870;2023-07-13T05:43:44;101276.00;;;13.40
19644;BMP180;9970;-36.854;174.870;2023-07-13T05:46:17;101275.00;;;13.40
19644;BMP180;9970;-36.854;174.870;2023-07-13T05:48:50;101288.00;;;13.40
19644;BMP180;9970;-36.854;174.870;2023-07-13T05:51:23;101283.00;;;13.40
19644;BMP180;9970;-36.854;174.870;2023-07-13T05:53:57;101283.00;;;13.40
19644;BMP180;9970;-36.854;174.870;2023-07-13T05:56:31;101296.00;;;13.40
19644;BMP180;9970;-36.854;174.870;2023-07-13T05:59:04;101285.00;;;13.40
19644;BMP180;9970;-36.854;174.870;2023-07-13T06:01:37;101287.00;;;13.30
19644;BMP180;9970;-36.854;174.870;2023-07-13T06:04:10;101288.00;;;13.30
19644;BMP180;9970;-36.854;174.870;2023-07-13T06:06:43;101296.00;;;13.30
19644;BMP180;9970;-36.854;174.870;2023-07-13T06:09:16;101300.00;;;13.30
19644;BMP180;9970;-36.854;174.870;2023-07-13T06:11:49;101294.00;;;13.30
19644;BMP180;9970;-36.854;174.870;2023-07-13T06:14:26;101300.00;;;13.30
19644;BMP180;9970;-36.854;174.870;2023-07-13T06:16:59;101301.00;;;13.30
19644;BMP180;9970;-36.854;174.870;2023-07-13T06:19:32;101309.00;;;13.30
19644;BMP180;9970;-36.854;174.870;2023-07-13T06:22:05;101302.00;;;13.30
19644;BMP180;9970;-36.854;174.870;2023-07-13T06:24:38;101302.00;;;13.30
19644;BMP180;9970;-36.854;174.870;2023-07-13T06:27:11;101295.00;;;13.30
19644;BMP180;9970;-36.854;174.870;2023-07-13T06:29:48;101290.00;;;13.30
19644;BMP180;9970;-36.854;174.870;2023-07-13T06:32:22;101297.00;;;13.30
19644;BMP180;9970;-36.854;174.870;2023-07-13T06:34:55;101294.00;;;13.30
19644;BMP180;9970;-36.854;174.870;2023-07-13T06:37:28;101294.00;;;13.30
19644;BMP180;9970;-36.854;174.870;2023-07-13T06:40:01;101292.00;;;13.30
19644;BMP180;9970;-36.854;174.870;2023-07-13T06:42:35;101298.00;;;13.30
19644;BMP180;9970;-36.854;174.870;2023-07-13T06:45:09;101297.00;;;13.30
19644;BMP180;9970;-36.854;174.870;2023-07-13T06:47:43;101305.00;;;13.30
19644;BMP180;9970;-36.854;174.870;2023-07-13T06:50:16;101311.00;;;13.30
19644;BMP180;9970;-36.854;174.870;2023-07-13T06:52:53;101319.00;;;13.30
19644;BMP180;9970;-36.854;174.870;2023-07-13T06:55:26;101317.00;;;13.30
19644;BMP180;9970;-36.854;174.870;2023-07-13T06:57:59;101319.00;;;13.30
19644;BMP180;9970;-36.854;174.870;2023-07-13T07:00:32;101321.00;;;13.40
19644;BMP180;9970;-36.854;174.870;2023-07-13T07:03:05;101329.00;;;13.40
19644;BMP180;9970;-36.854;174.870;2023-07-13T07:05:38;101333.00;;;13.40
19644;BMP180;9970;-36.854;174.870;2023-07-13T07:08:11;101325.00;;;13.40
19644;BMP180;9970;-36.854;174.870;2023-07-13T07:10:44;101332.00;;;13.40
19644;BMP180;9970;-36.854;174.870;2023-07-13T07:13:17;101334.00;;;13.40
19644;BMP180;9970;-36.854;174.870;2023-07-13T07:15:51;101334.00;;;13.40
19644;BMP180;9970;-36.854;174.870;2023-07-13T07:18:23;101334.00;;;13.40
19644;BMP180;9970;-36.854;174.870;2023-07-13T07:20:57;101325.00;;;13.40
19644;BMP180;9970;-36.854;174.870;2023-07-13T07:23:30;101341.00;;;13.40
19644;BMP180;9970;-36.854;174.870;2023-07-13T07:26:02;101344.00;;;13.40
19644;BMP180;9970;-36.854;174.870;2023-07-13T07:28:35;101336.00;;;13.40
19644;BMP180;9970;-36.854;174.870;2023-07-13T07:31:10;101342.00;;;13.40
19644;BMP180;9970;-36.854;174.870;2023-07-13T07:33:44;101337.00;;;13.40
19644;BMP180;9970;-36.854;174.870;2023-07-13T07:36:17;101325.00;;;13.40
19644;BMP180;9970;-36.854;174.870;2023-07-13T07:38:52;101326.00;;;13.40
19644;BMP180;9970;-36.854;174.870;2023-07-13T07:41:25;101329.00;;;13.40
19644;BMP180;9970;-36.854;174.870;2023-07-13T07:44:00;101329.00;;;13.40
19644;BMP180;9970;-36.854;174.870;2023-07-13T07:46:34;101336.00;;;13.40
19644;BMP180;9970;-36.854;174.870;2023-07-13T07:49:07;101326.00;;;13.40
19644;BMP180;9970;-36.854;174.870;2023-07-13T07:51:40;101322.00;;;13.40
19644;BMP180;9970;-36.854;174.870;2023-07-13T07:54:13;101328.00;;;13.40
19644;BMP180;9970;-36.854;174.870;2023-07-13T07:56:47;101317.00;;;13.40
19644;BMP180;9970;-36.854;174.870;2023-07-13T07:59:22;101306.00;;;13.30
19644;BMP180;9970;-36.854;174.870;2023-07-13T08:01:56;101315.00;;;13.30
19644;BMP180;9970;-36.854;174.870;2023-07-13T08:04:31;101325.00;;;13.30
19644;BMP180;9970;-36.854;174.870;2023-07-13T08:07:05;101316.00;;;13.30
19644;BMP180;9970;-36.854;174.870;2023-07-13T08:09:38;101323.00;;;13.30
19644;BMP180;9970;-36.854;174.870;2023-07-13T08:12:12;101320.00;;;13.30
19644;BMP180;9970;-36.854;174.870;2023-07-13T08:14:47;101324.00;;;13.30
19644;BMP180;9970;-36.854;174.870;2023-07-13T08:17:24;101324.00;;;13.30
19644;BMP180;9970;-36.854;174.870;2023-07-13T08:20:02;101326.00;;;13.30
19644;BMP180;9970;-36.854;174.870;2023-07-13T08:22:35;101322.00;;;13.30
19644;BMP180;9970;-36.854;174.870;2023-07-13T08:25:09;101326.00;;;13.20
19644;BMP180;9970;-36.854;174.870;2023-07-13T08:27:41;101326.00;;;13.20
19644;BMP180;9970;-36.854;174.870;2023-07-13T08:30:14;101326.00;;;13.20
19644;BMP180;9970;-36.854;174.870;2023-07-13T08:32:48;101321.00;;;13.20
19644;BMP180;9970;-36.854;174.870;2023-07-13T08:35:21;101322.00;;;13.20
19644;BMP180;9970;-36.854;174.870;2023-07-13T08:37:56;101327.00;;;13.20
19644;BMP180;9970;-36.854;174.870;2023-07-13T08:40:30;101322.00;;;13.20
19644;BMP180;9970;-36.854;174.870;2023-07-13T08:43:03;101320.00;;;13.20
19644;BMP180;9970;-36.854;174.870;2023-07-13T08:45:43;101321.00;;;13.10
19644;BMP180;9970;-36.854;174.870;2023-07-13T08:48:22;101324.00;;;13.10
19644;BMP180;9970;-36.854;174.870;2023-07-13T08:53:50;101320.00;;;13.10
19644;BMP180;9970;-36.854;174.870;2023-07-13T08:56:25;101314.00;;;13.10
19644;BMP180;9970;-36.854;174.870;2023-07-13T08:59:10;101309.00;;;13.00
19644;BMP180;9970;-36.854;174.870;2023-07-13T09:04:42;101314.00;;;13.00
19644;BMP180;9970;-36.854;174.870;2023-07-13T09:07:27;101315.00;;;13.00
19644;BMP180;9970;-36.854;174.870;2023-07-13T09:10:16;101311.00;;;13.00
19644;BMP180;9970;-36.854;174.870;2023-07-13T09:15:48;101308.00;;;12.90
19644;BMP180;9970;-36.854;174.870;2023-07-13T09:21:20;101307.00;;;12.90
19644;BMP180;9970;-36.854;174.870;2023-07-13T09:23:48;101313.00;;;12.90
19644;BMP180;9970;-36.854;174.870;2023-07-13T09:26:23;101313.00;;;12.90
19644;BMP180;9970;-36.854;174.870;2023-07-13T09:28:58;101317.00;;;12.90
19644;BMP180;9970;-36.854;174.870;2023-07-13T09:31:45;101311.00;;;12.90
19644;BMP180;9970;-36.854;174.870;2023-07-13T09:34:19;101310.00;;;12.90
19644;BMP180;9970;-36.854;174.870;2023-07-13T09:36:52;101306.00;;;12.90
19644;BMP180;9970;-36.854;174.870;2023-07-13T09:39:42;101313.00;;;12.90
19644;BMP180;9970;-36.854;174.870;2023-07-13T09:42:22;101305.00;;;12.90
19644;BMP180;9970;-36.854;174.870;2023-07-13T09:44:59;101309.00;;;12.90
19644;BMP180;9970;-36.854;174.870;2023-07-13T09:47:38;101312.00;;;12.90
19644;BMP180;9970;-36.854;174.870;2023-07-13T09:50:14;101311.00;;;12.90
19644;BMP180;9970;-36.854;174.870;2023-07-13T09:52:51;101313.00;;;12.90
19644;BMP180;9970;-36.854;174.870;2023-07-13T09:55:27;101309.00;;;12.90
19644;BMP180;9970;-36.854;174.870;2023-07-13T09:58:04;101316.00;;;12.90
19644;BMP180;9970;-36.854;174.870;2023-07-13T10:00:39;101309.00;;;12.90
19644;BMP180;9970;-36.854;174.870;2023-07-13T10:03:22;101306.00;;;12.90
19644;BMP180;9970;-36.854;174.870;2023-07-13T10:05:57;101303.00;;;12.90
19644;BMP180;9970;-36.854;174.870;2023-07-13T10:08:31;101304.00;;;12.90
19644;BMP180;9970;-36.854;174.870;2023-07-13T10:13:58;101317.00;;;12.90
19644;BMP180;9970;-36.854;174.870;2023-07-13T10:16:36;101315.00;;;12.80
19644;BMP180;9970;-36.854;174.870;2023-07-13T10:19:23;101319.00;;;12.80
19644;BMP180;9970;-36.854;174.870;2023-07-13T10:22:00;101309.00;;;12.80
19644;BMP180;9970;-36.854;174.870;2023-07-13T10:24:34;101326.00;;;12.80
19644;BMP180;9970;-36.854;174.870;2023-07-13T10:27:16;101325.00;;;12.80
19644;BMP180;9970;-36.854;174.870;2023-07-13T10:32:33;101336.00;;;12.80
19644;BMP180;9970;-36.854;174.870;2023-07-13T10:35:12;101334.00;;;12.80
19644;BMP180;9970;-36.854;174.870;2023-07-13T10:38:10;101337.00;;;12.80
19644;BMP180;9970;-36.854;174.870;2023-07-13T10:40:43;101331.00;;;12.80
19644;BMP180;9970;-36.854;174.870;2023-07-13T10:43:20;101331.00;;;12.80
19644;BMP180;9970;-36.854;174.870;2023-07-13T10:45:54;101327.00;;;12.80
19644;BMP180;9970;-36.854;174.870;2023-07-13T10:48:28;101325.00;;;12.80
19644;BMP180;9970;-36.854;174.870;2023-07-13T10:51:03;101331.00;;;12.80
19644;BMP180;9970;-36.854;174.870;2023-07-13T10:53:38;101341.00;;;12.80
19644;BMP180;9970;-36.854;174.870;2023-07-13T11:01:57;101348.00;;;12.80
19644;BMP180;9970;-36.854;174.870;2023-07-13T11:04:47;101352.00;;;12.80
19644;BMP180;9970;-36.854;174.870;2023-07-13T11:07:25;101345.00;;;12.80
19644;BMP180;9970;-36.854;174.870;2023-07-13T11:10:05;101357.00;;;12.80
19644;BMP180;9970;-36.854;174.870;2023-07-13T11:12:53;101352.00;;;12.80
19644;BMP180;9970;-36.854;174.870;2023-07-13T11:15:42;101346.00;;;12.80
19644;BMP180;9970;-36.854;174.870;2023-07-13T11:18:12;101356.00;;;12.70
19644;BMP180;9970;-36.854;174.870;2023-07-13T11:20:42;101359.00;;;12.70
19644;BMP180;9970;-36.854;174.870;2023-07-13T11:25:50;101366.00;;;12.70
19644;BMP180;9970;-36.854;174.870;2023-07-13T11:28:25;101364.00;;;12.70
19644;BMP180;9970;-36.854;174.870;2023-07-13T11:31:01;101384.00;;;12.70
19644;BMP180;9970;-36.854;174.870;2023-07-13T11:36:22;101370.00;;;12.70
19644;BMP180;9970;-36.854;174.870;2023-07-13T11:39:13;101373.00;;;12.70
19644;BMP180;9970;-36.854;174.870;2023-07-13T11:41:42;101368.00;;;12.70
19644;BMP180;9970;-36.854;174.870;2023-07-13T11:44:22;101371.00;;;12.70
19644;BMP180;9970;-36.854;174.870;2023-07-13T11:46:57;101370.00;;;12.70
19644;BMP180;9970;-36.854;174.870;2023-07-13T11:49:45;101374.00;;;12.70
19644;BMP180;9970;-36.854;174.870;2023-07-13T11:52:17;101377.00;;;12.70
19644;BMP180;9970;-36.854;174.870;2023-07-13T11:54:52;101369.00;;;12.70
19644;BMP180;9970;-36.854;174.870;2023-07-13T11:57:36;101369.00;;;12.70
19644;BMP180;9970;-36.854;174.870;2023-07-13T12:00:13;101372.00;;;12.70
19644;BMP180;9970;-36.854;174.870;2023-07-13T12:02:48;101370.00;;;12.70
19644;BMP180;9970;-36.854;174.870;2023-07-13T12:05:22;101375.00;;;12.70
19644;BMP180;9970;-36.854;174.870;2023-07-13T12:07:57;101369.00;;;12.70
19644;BMP180;9970;-36.854;174.870;2023-07-13T12:10:31;101372.00;;;12.70
19644;BMP180;9970;-36.854;174.870;2023-07-13T12:13:05;101366.00;;;12.70
19644;BMP180;9970;-36.854;174.870;2023-07-13T12:15:45;101365.00;;;12.80
19644;BMP180;9970;-36.854;174.870;2023-07-13T12:18:23;101359.00;;;12.80
19644;BMP180;9970;-36.854;174.870;2023-07-13T12:21:01;101365.00;;;12.80
19644;BMP180;9970;-36.854;174.870;2023-07-13T12:23:36;101368.00;;;12.80
19644;BMP180;9970;-36.854;174.870;2023-07-13T12:26:10;101363.00;;;12.80
19644;BMP180;9970;-36.854;174.870;2023-07-13T12:28:49;101366.00;;;12.80
19644;BMP180;9970;-36.854;174.870;2023-07-13T12:31:43;101370.00;;;12.80
19644;BMP180;9970;-36.854;174.870;2023-07-13T12:34:18;101367.00;;;12.80
19644;BMP180;9970;-36.854;174.870;2023-07-13T12:37:01;101378.00;;;12.80
19644;BMP180;9970;-36.854;174.870;2023-07-13T12:39:44;101381.00;;;12.80
19644;BMP180;9970;-36.854;174.870;2023-07-13T12:42:25;101379.00;;;12.80
19644;BMP180;9970;-36.854;174.870;2023-07-13T12:47:53;101374.00;;;12.80
19644;BMP180;9970;-36.854;174.870;2023-07-13T12:50:29;101382.00;;;12.80
19644;BMP180;9970;-36.854;174.870;2023-07-13T12:53:01;101376.00;;;12.70
19644;BMP180;9970;-36.854;174.870;2023-07-13T12:55:48;101384.00;;;12.80
19644;BMP180;9970;-36.854;174.870;2023-07-13T12:58:36;101382.00;;;12.70
19644;BMP180;9970;-36.854;174.870;2023-07-13T13:01:09;101385.00;;;12.70
19644;BMP180;9970;-36.854;174.870;2023-07-13T13:03:50;101386.00;;;12.70
19644;BMP180;9970;-36.854;174.870;2023-07-13T13:06:28;101388.00;;;12.80
19644;BMP180;9970;-36.854;174.870;2023-07-13T13:09:02;101388.00;;;12.80
19644;BMP180;9970;-36.854;174.870;2023-07-13T13:11:35;101391.00;;;12.80
19644;BMP180;9970;-36.854;174.870;2023-07-13T13:14:09;101381.00;;;12.80
19644;BMP180;9970;-36.854;174.870;2023-07-13T13:16:46;101388.00;;;12.80
19644;BMP180;9970;-36.854;174.870;2023-07-13T13:19:28;101388.00;;;12.80
19644;BMP180;9970;-36.854;174.870;2023-07-13T13:21:57;101390.00;;;12.80
19644;BMP180;9970;-36.854;174.870;2023-07-13T13:24:30;101391.00;;;12.80
19644;BMP180;9970;-36.854;174.870;2023-07-13T13:27:04;101391.00;;;12.80
19644;BMP180;9970;-36.854;174.870;2023-07-13T13:29:40;101399.00;;;12.80
19644;BMP180;9970;-36.854;174.870;2023-07-13T13:32:14;101383.00;;;12.80
19644;BMP180;9970;-36.854;174.870;2023-07-13T13:34:47;101379.00;;;12.80
19644;BMP180;9970;-36.854;174.870;2023-07-13T13:37:22;101388.00;;;12.80
19644;BMP180;9970;-36.854;174.870;2023-07-13T13:39:57;101383.00;;;12.80
19644;BMP180;9970;-36.854;174.870;2023-07-13T13:42:31;101387.00;;;12.80
19644;BMP180;9970;-36.854;174.870;2023-07-13T13:45:05;101386.00;;;12.80
19644;BMP180;9970;-36.854;174.870;2023-07-13T13:47:38;101375.00;;;12.80
19644;BMP180;9970;-36.854;174.870;2023-07-13T13:50:19;101381.00;;;12.80
19644;BMP180;9970;-36.854;174.870;2023-07-13T13:52:50;101382.00;;;12.80
19644;BMP180;9970;-36.854;174.870;2023-07-13T13:55:23;101382.00;;;12.80
19644;BMP180;9970;-36.854;174.870;2023-07-13T13:57:56;101390.00;;;12.80
19644;BMP180;9970;-36.854;174.870;2023-07-13T14:00:29;101391.00;;;12.80
19644;BMP180;9970;-36.854;174.870;2023-07-13T14:03:02;101385.00;;;12.80
19644;BMP180;9970;-36.854;174.870;2023-07-13T14:05:37;101386.00;;;12.80
19644;BMP180;9970;-36.854;174.870;2023-07-13T14:08:15;101394.00;;;12.80
19644;BMP180;9970;-36.854;174.870;2023-07-13T14:10:51;101382.00;;;12.80
19644;BMP180;9970;-36.854;174.870;2023-07-13T14:13:26;101379.00;;;12.80
19644;BMP180;9970;-36.854;174.870;2023-07-13T14:16:10;101381.00;;;12.80
19644;BMP180;9970;-36.854;174.870;2023-07-13T14:18:40;101380.00;;;12.80
19644;BMP180;9970;-36.854;174.870;2023-07-13T14:21:14;101374.00;;;12.80
19644;BMP180;9970;-36.854;174.870;2023-07-13T14:23:48;101371.00;;;12.80
19644;BMP180;9970;-36.854;174.870;2023-07-13T14:26:25;101372.00;;;12.80
19644;BMP180;9970;-36.854;174.870;2023-07-13T14:28:58;101377.00;;;12.80
19644;BMP180;9970;-36.854;174.870;2023-07-13T14:31:31;101383.00;;;12.80
19644;BMP180;9970;-36.854;174.870;2023-07-13T14:34:04;101376.00;;;12.80
19644;BMP180;9970;-36.854;174.870;2023-07-13T14:36:48;101375.00;;;12.80
19644;BMP180;9970;-36.854;174.870;2023-07-13T14:39:24;101371.00;;;12.80
19644;BMP180;9970;-36.854;174.870;2023-07-13T14:41:57;101364.00;;;12.70
19644;BMP180;9970;-36.854;174.870;2023-07-13T14:44:31;101367.00;;;12.70
19644;BMP180;9970;-36.854;174.870;2023-07-13T14:47:05;101376.00;;;12.80
19644;BMP180;9970;-36.854;174.870;2023-07-13T14:49:43;101366.00;;;12.70